sensor_id;sensor_type;location;lat;lon;timestamp;temperature;humidity
5743;DHT22;2896;53.500;10.020;2022-12-29T00:02:10;8.30;99.90
5743;DHT22;2896;53.500;10.020;2022-12-29T00:04:37;8.20;99.90
5743;DHT22;2896;53.500;10.020;2022-12-29T00:07:04;8.20;99.90
5743;DHT22;2896;53.500;10.020;2022-12-29T00:09:33;8.30;99.90
5743;DHT22;2896;53.500;10.020;2022-12-29T00:12:00;8.30;99.90
5743;DHT22;2896;53.500;10.020;2022-12-29T00:14:27;8.40;99.90
5743;DHT22;2896;53.500;10.020;2022-12-29T00:17:12;8.30;99.90
5743;DHT22;2896;53.500;10.020;2022-12-29T00:19:39;8.30;99.90
5743;DHT22;2896;53.500;10.020;2022-12-29T00:22:23;8.30;99.90
5743;DHT22;2896;53.500;10.020;2022-12-29T00:25:10;8.30;99.90
5743;DHT22;2896;53.500;10.020;2022-12-29T00:27:55;8.40;99.90
5743;DHT22;2896;53.500;10.020;2022-12-29T00:30:39;8.40;99.90
5743;DHT22;2896;53.500;10.020;2022-12-29T00:33:26;8.40;99.90
5743;DHT22;2896;53.500;10.020;2022-12-29T00:36:16;8.50;99.90
5743;DHT22;2896;53.500;10.020;2022-12-29T00:38:49;8.50;99.90
5743;DHT22;2896;53.500;10.020;2022-12-29T00:41:35;8.50;99.90
5743;DHT22;2896;53.500;10.020;2022-12-29T00:44:19;8.60;99.90
5743;DHT22;2896;53.500;10.020;2022-12-29T00:46:45;8.50;99.90
5743;DHT22;2896;53.500;10.020;2022-12-29T00:49:13;8.60;99.90
5743;DHT22;2896;53.500;10.020;2022-12-29T00:51:59;8.70;99.90
5743;DHT22;2896;53.500;10.020;2022-12-29T00:54:27;8.70;99.90
5743;DHT22;2896;53.500;10.020;2022-12-29T00:56:55;8.70;99.90
5743;DHT22;2896;53.500;10.020;2022-12-29T00:59:22;8.70;99.90
5743;DHT22;2896;53.500;10.020;2022-12-29T01:01:50;8.70;99.90
5743;DHT22;2896;53.500;10.020;2022-12-29T01:04:18;8.70;99.90
5743;DHT22;2896;53.500;10.020;2022-12-29T01:06:45;9.70;99.90
5743;DHT22;2896;53.500;10.020;2022-12-29T01:09:12;8.60;99.90
5743;DHT22;2896;53.500;10.020;2022-12-29T01:11:58;8.60;99.90
5743;DHT22;2896;53.500;10.020;2022-12-29T01:14:24;8.70;99.90
5743;DHT22;2896;53.500;10.020;2022-12-29T01:16:52;8.70;99.90
5743;DHT22;2896;53.500;10.020;2022-12-29T01:19:19;8.70;99.90
5743;DHT22;2896;53.500;10.020;2022-12-29T01:21:46;8.70;99.90
5743;DHT22;2896;53.500;10.020;2022-12-29T01:24:14;8.70;99.90
5743;DHT22;2896;53.500;10.020;2022-12-29T01:26:41;8.70;99.90
5743;DHT22;2896;53.500;10.020;2022-12-29T01:29:09;8.80;99.90
5743;DHT22;2896;53.500;10.020;2022-12-29T01:31:36;8.80;99.90
5743;DHT22;2896;53.500;10.020;2022-12-29T01:34:03;8.80;99.90
5743;DHT22;2896;53.500;10.020;2022-12-29T01:36:29;8.80;99.90
5743;DHT22;2896;53.500;10.020;2022-12-29T01:38:56;8.80;99.90
5743;DHT22;2896;53.500;10.020;2022-12-29T01:41:23;8.80;99.90
5743;DHT22;2896;53.500;10.020;2022-12-29T01:43:52;9.00;99.90
5743;DHT22;2896;53.500;10.020;2022-12-29T01:46:23;8.90;99.90
5743;DHT22;2896;53.500;10.020;2022-12-29T01:48:54;9.00;99.90
5743;DHT22;2896;53.500;10.020;2022-12-29T01:51:23;8.90;99.90
5743;DHT22;2896;53.500;10.020;2022-12-29T01:53:51;9.00;99.90
5743;DHT22;2896;53.500;10.020;2022-12-29T01:56:19;8.90;99.90
5743;DHT22;2896;53.500;10.020;2022-12-29T01:58:50;8.90;99.90
5743;DHT22;2896;53.500;10.020;2022-12-29T02:01:20;8.90;99.90
5743;DHT22;2896;53.500;10.020;2022-12-29T02:03:48;8.90;99.90
5743;DHT22;2896;53.500;10.020;2022-12-29T02:06:18;8.80;99.90
5743;DHT22;2896;53.500;10.020;2022-12-29T02:08:49;8.80;99.90
5743;DHT22;2896;53.500;10.020;2022-12-29T02:11:16;8.80;99.90
5743;DHT22;2896;53.500;10.020;2022-12-29T02:13:43;8.80;99.90
5743;DHT22;2896;53.500;10.020;2022-12-29T02:16:24;8.80;99.90
5743;DHT22;2896;53.500;10.020;2022-12-29T02:19:05;8.80;99.90
5743;DHT22;2896;53.500;10.020;2022-12-29T02:21:55;8.90;99.90
5743;DHT22;2896;53.500;10.020;2022-12-29T02:27:48;8.80;99.90
5743;DHT22;2896;53.500;10.020;2022-12-29T02:30:37;8.80;99.90
5743;DHT22;2896;53.500;10.020;2022-12-29T02:33:13;8.80;99.90
5743;DHT22;2896;53.500;10.020;2022-12-29T02:35:49;8.90;99.90
5743;DHT22;2896;53.500;10.020;2022-12-29T02:38:23;8.90;99.90
5743;DHT22;2896;53.500;10.020;2022-12-29T02:40:55;8.80;99.90
5743;DHT22;2896;53.500;10.020;2022-12-29T02:43:27;8.80;99.90
5743;DHT22;2896;53.500;10.020;2022-12-29T02:46:00;8.90;99.90
5743;DHT22;2896;53.500;10.020;2022-12-29T02:48:32;8.80;99.90
5743;DHT22;2896;53.500;10.020;2022-12-29T02:51:07;8.80;99.90
5743;DHT22;2896;53.500;10.020;2022-12-29T02:53:36;8.90;99.90
5743;DHT22;2896;53.500;10.020;2022-12-29T02:56:21;8.80;99.90
5743;DHT22;2896;53.500;10.020;2022-12-29T02:58:48;8.70;99.90
5743;DHT22;2896;53.500;10.020;2022-12-29T03:01:24;8.80;99.90
5743;DHT22;2896;53.500;10.020;2022-12-29T03:04:03;8.90;99.90
5743;DHT22;2896;53.500;10.020;2022-12-29T03:06:43;9.00;99.90
5743;DHT22;2896;53.500;10.020;2022-12-29T03:09:23;9.00;99.90
5743;DHT22;2896;53.500;10.020;2022-12-29T03:11:59;9.00;99.90
5743;DHT22;2896;53.500;10.020;2022-12-29T03:14:44;9.00;99.90
5743;DHT22;2896;53.500;10.020;2022-12-29T03:17:37;9.10;99.90
5743;DHT22;2896;53.500;10.020;2022-12-29T03:20:08;9.00;99.90
5743;DHT22;2896;53.500;10.020;2022-12-29T03:22:40;9.00;99.90
5743;DHT22;2896;53.500;10.020;2022-12-29T03:25:12;9.00;99.90
5743;DHT22;2896;53.500;10.020;2022-12-29T03:27:44;9.00;99.90
5743;DHT22;2896;53.500;10.020;2022-12-29T03:30:12;9.10;99.90
5743;DHT22;2896;53.500;10.020;2022-12-29T03:32:44;9.00;99.90
5743;DHT22;2896;53.500;10.020;2022-12-29T03:35:14;9.10;99.90
5743;DHT22;2896;53.500;10.020;2022-12-29T03:37:45;9.10;99.90
5743;DHT22;2896;53.500;10.020;2022-12-29T03:40:15;9.10;99.90
5743;DHT22;2896;53.500;10.020;2022-12-29T03:42:43;9.60;99.90
5743;DHT22;2896;53.500;10.020;2022-12-29T03:45:10;6.70;99.90
5743;DHT22;2896;53.500;10.020;2022-12-29T03:47:37;9.10;99.90
5743;DHT22;2896;53.500;10.020;2022-12-29T03:50:06;9.10;99.90
5743;DHT22;2896;53.500;10.020;2022-12-29T03:52:33;9.10;99.90
5743;DHT22;2896;53.500;10.020;2022-12-29T03:55:00;9.20;99.90
5743;DHT22;2896;53.500;10.020;2022-12-29T03:57:27;9.20;99.90
5743;DHT22;2896;53.500;10.020;2022-12-29T03:59:53;9.10;99.90
5743;DHT22;2896;53.500;10.020;2022-12-29T04:02:20;9.10;99.90
5743;DHT22;2896;53.500;10.020;2022-12-29T04:04:47;9.20;99.90
5743;DHT22;2896;53.500;10.020;2022-12-29T04:07:15;9.20;99.90
5743;DHT22;2896;53.500;10.020;2022-12-29T04:09:41;9.20;99.90
5743;DHT22;2896;53.500;10.020;2022-12-29T04:12:08;9.00;99.90
5743;DHT22;2896;53.500;10.020;2022-12-29T04:14:34;9.00;99.90
5743;DHT22;2896;53.500;10.020;2022-12-29T04:17:01;9.10;99.90
5743;DHT22;2896;53.500;10.020;2022-12-29T04:19:28;9.10;99.90
5743;DHT22;2896;53.500;10.020;2022-12-29T04:21:54;9.20;99.90
5743;DHT22;2896;53.500;10.020;2022-12-29T04:24:22;9.20;99.90
5743;DHT22;2896;53.500;10.020;2022-12-29T04:26:49;9.20;99.90
5743;DHT22;2896;53.500;10.020;2022-12-29T04:29:15;9.20;99.90
5743;DHT22;2896;53.500;10.020;2022-12-29T04:31:42;9.30;99.90
5743;DHT22;2896;53.500;10.020;2022-12-29T04:34:09;9.20;99.90
5743;DHT22;2896;53.500;10.020;2022-12-29T04:36:35;9.30;99.90
5743;DHT22;2896;53.500;10.020;2022-12-29T04:39:02;9.20;99.90
5743;DHT22;2896;53.500;10.020;2022-12-29T04:41:31;9.20;99.90
5743;DHT22;2896;53.500;10.020;2022-12-29T04:43:58;9.20;99.90
5743;DHT22;2896;53.500;10.020;2022-12-29T04:46:25;9.20;99.90
5743;DHT22;2896;53.500;10.020;2022-12-29T04:48:51;9.20;99.90
5743;DHT22;2896;53.500;10.020;2022-12-29T04:51:18;9.20;99.90
5743;DHT22;2896;53.500;10.020;2022-12-29T04:53:45;9.20;99.90
5743;DHT22;2896;53.500;10.020;2022-12-29T04:56:11;9.20;99.90
5743;DHT22;2896;53.500;10.020;2022-12-29T04:58:39;9.20;99.90
5743;DHT22;2896;53.500;10.020;2022-12-29T05:01:06;10.60;99.90
5743;DHT22;2896;53.500;10.020;2022-12-29T05:03:33;9.40;99.90
5743;DHT22;2896;53.500;10.020;2022-12-29T05:05:59;9.40;99.90
5743;DHT22;2896;53.500;10.020;2022-12-29T05:08:26;9.40;99.90
5743;DHT22;2896;53.500;10.020;2022-12-29T05:10:52;9.50;99.90
5743;DHT22;2896;53.500;10.020;2022-12-29T05:13:19;9.50;99.90
5743;DHT22;2896;53.500;10.020;2022-12-29T05:15:49;9.50;99.90
5743;DHT22;2896;53.500;10.020;2022-12-29T05:18:16;9.50;99.90
5743;DHT22;2896;53.500;10.020;2022-12-29T05:20:43;9.60;99.90
5743;DHT22;2896;53.500;10.020;2022-12-29T05:23:10;9.60;99.90
5743;DHT22;2896;53.500;10.020;2022-12-29T05:25:36;9.60;99.90
5743;DHT22;2896;53.500;10.020;2022-12-29T05:28:04;9.70;99.90
5743;DHT22;2896;53.500;10.020;2022-12-29T05:30:30;9.70;99.90
5743;DHT22;2896;53.500;10.020;2022-12-29T05:32:58;9.70;99.90
5743;DHT22;2896;53.500;10.020;2022-12-29T05:35:25;9.70;99.90
5743;DHT22;2896;53.500;10.020;2022-12-29T05:37:52;9.70;99.90
5743;DHT22;2896;53.500;10.020;2022-12-29T05:40:18;9.80;99.90
5743;DHT22;2896;53.500;10.020;2022-12-29T05:42:45;9.80;99.90
5743;DHT22;2896;53.500;10.020;2022-12-29T05:45:11;9.80;99.90
5743;DHT22;2896;53.500;10.020;2022-12-29T05:47:38;9.80;99.90
5743;DHT22;2896;53.500;10.020;2022-12-29T05:50:07;9.80;99.90
5743;DHT22;2896;53.500;10.020;2022-12-29T05:52:33;9.80;99.90
5743;DHT22;2896;53.500;10.020;2022-12-29T05:55:00;9.80;99.90
5743;DHT22;2896;53.500;10.020;2022-12-29T05:57:26;9.90;99.90
5743;DHT22;2896;53.500;10.020;2022-12-29T05:59:53;12.40;99.90
5743;DHT22;2896;53.500;10.020;2022-12-29T06:02:20;9.90;99.90
5743;DHT22;2896;53.500;10.020;2022-12-29T06:04:46;10.00;99.90
5743;DHT22;2896;53.500;10.020;2022-12-29T06:07:14;10.00;99.90
5743;DHT22;2896;53.500;10.020;2022-12-29T06:09:41;10.00;99.90
5743;DHT22;2896;53.500;10.020;2022-12-29T06:12:08;10.10;99.90
5743;DHT22;2896;53.500;10.020;2022-12-29T06:14:34;10.00;99.90
5743;DHT22;2896;53.500;10.020;2022-12-29T06:17:01;10.10;99.90
5743;DHT22;2896;53.500;10.020;2022-12-29T06:19:27;10.10;99.90
5743;DHT22;2896;53.500;10.020;2022-12-29T06:21:54;10.10;99.90
5743;DHT22;2896;53.500;10.020;2022-12-29T06:24:22;10.10;99.90
5743;DHT22;2896;53.500;10.020;2022-12-29T06:26:49;10.10;99.90
5743;DHT22;2896;53.500;10.020;2022-12-29T06:29:15;10.10;99.90
5743;DHT22;2896;53.500;10.020;2022-12-29T06:31:43;10.10;77.80
5743;DHT22;2896;53.500;10.020;2022-12-29T06:34:10;10.10;1.00
5743;DHT22;2896;53.500;10.020;2022-12-29T06:36:37;10.00;1.00
5743;DHT22;2896;53.500;10.020;2022-12-29T06:39:04;10.00;1.00
5743;DHT22;2896;53.500;10.020;2022-12-29T06:41:32;10.10;1.00
5743;DHT22;2896;53.500;10.020;2022-12-29T06:43:58;10.10;1.00
5743;DHT22;2896;53.500;10.020;2022-12-29T06:46:25;10.10;99.90
5743;DHT22;2896;53.500;10.020;2022-12-29T06:48:51;10.00;1.00
5743;DHT22;2896;53.500;10.020;2022-12-29T06:51:18;10.00;1.00
5743;DHT22;2896;53.500;10.020;2022-12-29T06:53:45;10.00;1.00
5743;DHT22;2896;53.500;10.020;2022-12-29T06:56:11;10.00;1.00
5743;DHT22;2896;53.500;10.020;2022-12-29T06:58:39;9.90;99.90
5743;DHT22;2896;53.500;10.020;2022-12-29T07:01:06;9.80;1.00
5743;DHT22;2896;53.500;10.020;2022-12-29T07:03:32;9.80;1.00
5743;DHT22;2896;53.500;10.020;2022-12-29T07:05:59;9.80;1.00
5743;DHT22;2896;53.500;10.020;2022-12-29T07:08:26;9.70;99.90
5743;DHT22;2896;53.500;10.020;2022-12-29T07:10:52;9.00;1.00
5743;DHT22;2896;53.500;10.020;2022-12-29T07:13:19;9.70;99.90
5743;DHT22;2896;53.500;10.020;2022-12-29T07:15:47;9.70;99.90
5743;DHT22;2896;53.500;10.020;2022-12-29T07:18:14;9.70;99.90
5743;DHT22;2896;53.500;10.020;2022-12-29T07:20:40;9.60;8.20
5743;DHT22;2896;53.500;10.020;2022-12-29T07:23:07;9.60;64.20
5743;DHT22;2896;53.500;10.020;2022-12-29T07:25:34;9.60;9.00
5743;DHT22;2896;53.500;10.020;2022-12-29T07:28:01;9.60;99.90
5743;DHT22;2896;53.500;10.020;2022-12-29T07:30:28;9.60;99.90
5743;DHT22;2896;53.500;10.020;2022-12-29T07:32:56;9.60;1.00
5743;DHT22;2896;53.500;10.020;2022-12-29T07:35:23;9.70;99.90
5743;DHT22;2896;53.500;10.020;2022-12-29T07:37:50;9.80;1.00
5743;DHT22;2896;53.500;10.020;2022-12-29T07:40:16;9.80;1.00
5743;DHT22;2896;53.500;10.020;2022-12-29T07:42:43;9.90;1.00
5743;DHT22;2896;53.500;10.020;2022-12-29T07:45:10;9.80;1.00
5743;DHT22;2896;53.500;10.020;2022-12-29T07:47:37;9.80;1.00
5743;DHT22;2896;53.500;10.020;2022-12-29T07:50:06;9.80;89.90
5743;DHT22;2896;53.500;10.020;2022-12-29T07:52:32;9.80;1.00
5743;DHT22;2896;53.500;10.020;2022-12-29T07:54:59;9.80;1.00
5743;DHT22;2896;53.500;10.020;2022-12-29T07:57:26;9.80;1.00
5743;DHT22;2896;53.500;10.020;2022-12-29T07:59:52;9.70;1.00
5743;DHT22;2896;53.500;10.020;2022-12-29T08:02:19;9.70;99.90
5743;DHT22;2896;53.500;10.020;2022-12-29T08:04:46;9.70;1.00
5743;DHT22;2896;53.500;10.020;2022-12-29T08:07:13;8.50;1.00
5743;DHT22;2896;53.500;10.020;2022-12-29T08:09:40;9.70;1.00
5743;DHT22;2896;53.500;10.020;2022-12-29T08:12:08;9.80;99.90
5743;DHT22;2896;53.500;10.020;2022-12-29T08:14:35;9.70;1.00
5743;DHT22;2896;53.500;10.020;2022-12-29T08:17:02;9.60;99.90
5743;DHT22;2896;53.500;10.020;2022-12-29T08:19:28;9.60;54.50
5743;DHT22;2896;53.500;10.020;2022-12-29T08:21:55;9.60;18.20
5743;DHT22;2896;53.500;10.020;2022-12-29T08:24:23;9.60;1.00
5743;DHT22;2896;53.500;10.020;2022-12-29T08:26:49;9.70;1.00
5743;DHT22;2896;53.500;10.020;2022-12-29T08:29:16;9.70;1.00
5743;DHT22;2896;53.500;10.020;2022-12-29T08:31:43;9.70;29.00
5743;DHT22;2896;53.500;10.020;2022-12-29T08:34:09;9.70;99.90
5743;DHT22;2896;53.500;10.020;2022-12-29T08:36:36;9.70;1.00
5743;DHT22;2896;53.500;10.020;2022-12-29T08:39:04;9.70;99.90
5743;DHT22;2896;53.500;10.020;2022-12-29T08:41:32;9.80;99.90
5743;DHT22;2896;53.500;10.020;2022-12-29T08:43:58;9.90;99.90
5743;DHT22;2896;53.500;10.020;2022-12-29T08:46:25;10.00;99.90
5743;DHT22;2896;53.500;10.020;2022-12-29T08:48:52;10.10;1.00
5743;DHT22;2896;53.500;10.020;2022-12-29T08:51:19;10.10;1.00
5743;DHT22;2896;53.500;10.020;2022-12-29T08:53:46;10.10;1.00
5743;DHT22;2896;53.500;10.020;2022-12-29T08:56:12;10.20;99.90
5743;DHT22;2896;53.500;10.020;2022-12-29T08:58:40;10.20;99.90
5743;DHT22;2896;53.500;10.020;2022-12-29T09:01:10;10.30;99.90
5743;DHT22;2896;53.500;10.020;2022-12-29T09:03:36;10.50;22.20
5743;DHT22;2896;53.500;10.020;2022-12-29T09:06:03;10.30;1.00
5743;DHT22;2896;53.500;10.020;2022-12-29T09:08:30;10.20;1.00
5743;DHT22;2896;53.500;10.020;2022-12-29T09:11:06;10.20;1.00
5743;DHT22;2896;53.500;10.020;2022-12-29T09:13:33;10.20;1.00
5743;DHT22;2896;53.500;10.020;2022-12-29T09:16:01;10.20;1.00
5743;DHT22;2896;53.500;10.020;2022-12-29T09:18:28;10.20;1.00
5743;DHT22;2896;53.500;10.020;2022-12-29T09:20:57;10.10;1.00
5743;DHT22;2896;53.500;10.020;2022-12-29T09:23:24;10.20;1.00
5743;DHT22;2896;53.500;10.020;2022-12-29T09:25:50;10.30;1.00
5743;DHT22;2896;53.500;10.020;2022-12-29T09:28:17;10.30;1.00
5743;DHT22;2896;53.500;10.020;2022-12-29T09:30:44;10.30;1.00
5743;DHT22;2896;53.500;10.020;2022-12-29T09:33:12;10.30;1.00
5743;DHT22;2896;53.500;10.020;2022-12-29T09:35:41;10.40;1.00
5743;DHT22;2896;53.500;10.020;2022-12-29T09:38:08;10.40;1.00
5743;DHT22;2896;53.500;10.020;2022-12-29T09:40:34;10.50;1.00
5743;DHT22;2896;53.500;10.020;2022-12-29T09:43:23;10.50;1.00
5743;DHT22;2896;53.500;10.020;2022-12-29T09:45:59;10.50;1.00
5743;DHT22;2896;53.500;10.020;2022-12-29T09:48:33;10.60;1.00
5743;DHT22;2896;53.500;10.020;2022-12-29T09:51:07;10.60;1.00
5743;DHT22;2896;53.500;10.020;2022-12-29T09:53:37;10.70;1.00
5743;DHT22;2896;53.500;10.020;2022-12-29T09:56:05;12.00;99.90
5743;DHT22;2896;53.500;10.020;2022-12-29T09:58:41;10.90;99.90
5743;DHT22;2896;53.500;10.020;2022-12-29T10:01:14;10.90;99.90
5743;DHT22;2896;53.500;10.020;2022-12-29T10:03:47;10.80;99.90
5743;DHT22;2896;53.500;10.020;2022-12-29T10:06:18;10.90;99.90
5743;DHT22;2896;53.500;10.020;2022-12-29T10:08:55;11.00;99.90
5743;DHT22;2896;53.500;10.020;2022-12-29T10:11:35;11.00;99.90
5743;DHT22;2896;53.500;10.020;2022-12-29T10:14:17;11.00;99.90
5743;DHT22;2896;53.500;10.020;2022-12-29T10:16:53;11.00;99.90
5743;DHT22;2896;53.500;10.020;2022-12-29T10:19:38;10.90;99.90
5743;DHT22;2896;53.500;10.020;2022-12-29T10:22:17;10.80;99.90
5743;DHT22;2896;53.500;10.020;2022-12-29T10:24:47;10.90;99.90
5743;DHT22;2896;53.500;10.020;2022-12-29T10:27:16;10.90;99.90
5743;DHT22;2896;53.500;10.020;2022-12-29T10:29:48;11.10;99.90
5743;DHT22;2896;53.500;10.020;2022-12-29T10:32:23;11.10;99.90
5743;DHT22;2896;53.500;10.020;2022-12-29T10:34:55;11.20;99.90
5743;DHT22;2896;53.500;10.020;2022-12-29T10:37:30;11.30;99.90
5743;DHT22;2896;53.500;10.020;2022-12-29T10:39:59;11.30;99.90
5743;DHT22;2896;53.500;10.020;2022-12-29T10:42:28;11.40;99.90
5743;DHT22;2896;53.500;10.020;2022-12-29T10:44:55;11.40;99.90
5743;DHT22;2896;53.500;10.020;2022-12-29T10:47:24;11.40;99.90
5743;DHT22;2896;53.500;10.020;2022-12-29T10:49:54;11.50;99.90
5743;DHT22;2896;53.500;10.020;2022-12-29T10:52:22;11.40;99.90
5743;DHT22;2896;53.500;10.020;2022-12-29T10:54:51;11.30;99.90
5743;DHT22;2896;53.500;10.020;2022-12-29T10:57:26;11.30;99.90
5743;DHT22;2896;53.500;10.020;2022-12-29T10:59:54;11.10;99.90
5743;DHT22;2896;53.500;10.020;2022-12-29T11:02:39;11.10;99.90
5743;DHT22;2896;53.500;10.020;2022-12-29T11:05:19;11.10;99.90
5743;DHT22;2896;53.500;10.020;2022-12-29T11:07:47;11.10;99.90
5743;DHT22;2896;53.500;10.020;2022-12-29T11:10:20;11.20;99.90
5743;DHT22;2896;53.500;10.020;2022-12-29T11:12:58;11.30;99.90
5743;DHT22;2896;53.500;10.020;2022-12-29T11:15:25;11.30;99.90
5743;DHT22;2896;53.500;10.020;2022-12-29T11:17:53;11.30;99.90
5743;DHT22;2896;53.500;10.020;2022-12-29T11:20:30;11.20;99.90
5743;DHT22;2896;53.500;10.020;2022-12-29T11:22:58;11.20;99.90
5743;DHT22;2896;53.500;10.020;2022-12-29T11:25:25;11.10;99.90
5743;DHT22;2896;53.500;10.020;2022-12-29T11:27:56;10.90;99.90
5743;DHT22;2896;53.500;10.020;2022-12-29T11:30:25;11.00;99.90
5743;DHT22;2896;53.500;10.020;2022-12-29T11:32:53;11.00;99.90
5743;DHT22;2896;53.500;10.020;2022-12-29T11:35:33;11.00;99.90
5743;DHT22;2896;53.500;10.020;2022-12-29T11:38:00;11.00;99.90
5743;DHT22;2896;53.500;10.020;2022-12-29T11:40:27;11.00;99.90
5743;DHT22;2896;53.500;10.020;2022-12-29T11:42:56;11.00;99.90
5743;DHT22;2896;53.500;10.020;2022-12-29T11:45:25;11.00;99.90
5743;DHT22;2896;53.500;10.020;2022-12-29T11:47:54;11.00;99.90
5743;DHT22;2896;53.500;10.020;2022-12-29T11:50:23;10.90;99.90
5743;DHT22;2896;53.500;10.020;2022-12-29T11:52:59;10.90;99.90
5743;DHT22;2896;53.500;10.020;2022-12-29T11:55:28;11.00;99.90
5743;DHT22;2896;53.500;10.020;2022-12-29T11:57:58;10.90;99.90
5743;DHT22;2896;53.500;10.020;2022-12-29T12:00:28;10.90;99.90
5743;DHT22;2896;53.500;10.020;2022-12-29T12:02:58;10.90;99.90
5743;DHT22;2896;53.500;10.020;2022-12-29T12:05:31;10.80;99.90
5743;DHT22;2896;53.500;10.020;2022-12-29T12:08:05;10.70;99.90
5743;DHT22;2896;53.500;10.020;2022-12-29T12:10:38;10.80;99.90
5743;DHT22;2896;53.500;10.020;2022-12-29T12:13:17;10.80;99.90
5743;DHT22;2896;53.500;10.020;2022-12-29T12:15:48;10.70;99.90
5743;DHT22;2896;53.500;10.020;2022-12-29T12:18:28;10.60;99.90
5743;DHT22;2896;53.500;10.020;2022-12-29T12:21:00;10.60;99.90
5743;DHT22;2896;53.500;10.020;2022-12-29T12:23:43;10.70;99.90
5743;DHT22;2896;53.500;10.020;2022-12-29T12:26:12;10.60;99.90
5743;DHT22;2896;53.500;10.020;2022-12-29T12:28:48;10.70;99.90
5743;DHT22;2896;53.500;10.020;2022-12-29T12:31:21;10.70;99.90
5743;DHT22;2896;53.500;10.020;2022-12-29T12:33:55;10.80;99.90
5743;DHT22;2896;53.500;10.020;2022-12-29T12:36:44;10.90;99.90
5743;DHT22;2896;53.500;10.020;2022-12-29T12:39:24;10.90;99.90
5743;DHT22;2896;53.500;10.020;2022-12-29T12:42:00;10.80;99.90
5743;DHT22;2896;53.500;10.020;2022-12-29T12:44:36;10.80;99.90
5743;DHT22;2896;53.500;10.020;2022-12-29T12:47:20;10.70;99.90
5743;DHT22;2896;53.500;10.020;2022-12-29T12:50:14;10.60;99.90
5743;DHT22;2896;53.500;10.020;2022-12-29T12:53:08;10.70;99.90
5743;DHT22;2896;53.500;10.020;2022-12-29T12:56:00;10.70;99.90
5743;DHT22;2896;53.500;10.020;2022-12-29T12:58:36;10.70;99.90
5743;DHT22;2896;53.500;10.020;2022-12-29T13:01:15;10.80;99.90
5743;DHT22;2896;53.500;10.020;2022-12-29T13:03:50;10.80;99.90
5743;DHT22;2896;53.500;10.020;2022-12-29T13:06:26;10.80;99.90
5743;DHT22;2896;53.500;10.020;2022-12-29T13:09:28;10.90;99.90
5743;DHT22;2896;53.500;10.020;2022-12-29T13:12:10;10.90;99.90
5743;DHT22;2896;53.500;10.020;2022-12-29T13:14:51;10.90;99.90
5743;DHT22;2896;53.500;10.020;2022-12-29T13:17:24;11.10;99.90
5743;DHT22;2896;53.500;10.020;2022-12-29T13:19:58;11.10;99.90
5743;DHT22;2896;53.500;10.020;2022-12-29T13:22:33;11.00;99.90
5743;DHT22;2896;53.500;10.020;2022-12-29T13:25:19;11.10;99.90
5743;DHT22;2896;53.500;10.020;2022-12-29T13:27:56;11.10;99.90
5743;DHT22;2896;53.500;10.020;2022-12-29T13:30:31;11.00;99.90
5743;DHT22;2896;53.500;10.020;2022-12-29T13:33:05;10.90;99.90
5743;DHT22;2896;53.500;10.020;2022-12-29T13:35:54;10.90;99.90
5743;DHT22;2896;53.500;10.020;2022-12-29T13:38:25;10.90;99.90
5743;DHT22;2896;53.500;10.020;2022-12-29T13:40:55;10.90;99.90
5743;DHT22;2896;53.500;10.020;2022-12-29T13:43:25;10.80;99.90
5743;DHT22;2896;53.500;10.020;2022-12-29T13:45:58;10.80;99.90
5743;DHT22;2896;53.500;10.020;2022-12-29T13:48:35;10.80;99.90
5743;DHT22;2896;53.500;10.020;2022-12-29T13:51:03;10.80;99.90
5743;DHT22;2896;53.500;10.020;2022-12-29T13:53:40;10.80;99.90
5743;DHT22;2896;53.500;10.020;2022-12-29T13:56:12;10.80;99.90
5743;DHT22;2896;53.500;10.020;2022-12-29T13:58:45;10.70;99.90
5743;DHT22;2896;53.500;10.020;2022-12-29T14:01:20;10.60;99.90
5743;DHT22;2896;53.500;10.020;2022-12-29T14:03:50;10.60;99.90
5743;DHT22;2896;53.500;10.020;2022-12-29T14:06:21;10.60;99.90
5743;DHT22;2896;53.500;10.020;2022-12-29T14:08:50;10.50;99.90
5743;DHT22;2896;53.500;10.020;2022-12-29T14:11:21;10.40;99.90
5743;DHT22;2896;53.500;10.020;2022-12-29T14:13:51;10.40;99.90
5743;DHT22;2896;53.500;10.020;2022-12-29T14:16:27;10.40;99.90
5743;DHT22;2896;53.500;10.020;2022-12-29T14:18:56;10.30;99.90
5743;DHT22;2896;53.500;10.020;2022-12-29T14:21:30;10.40;99.90
5743;DHT22;2896;53.500;10.020;2022-12-29T14:24:40;10.30;99.90
5743;DHT22;2896;53.500;10.020;2022-12-29T14:27:51;10.20;99.90
5743;DHT22;2896;53.500;10.020;2022-12-29T14:30:47;10.10;99.90
5743;DHT22;2896;53.500;10.020;2022-12-29T14:33:15;9.70;99.90
5743;DHT22;2896;53.500;10.020;2022-12-29T14:35:44;9.40;99.90
5743;DHT22;2896;53.500;10.020;2022-12-29T14:38:30;9.20;99.90
5743;DHT22;2896;53.500;10.020;2022-12-29T14:41:17;9.20;99.90
5743;DHT22;2896;53.500;10.020;2022-12-29T14:43:54;9.20;99.90
5743;DHT22;2896;53.500;10.020;2022-12-29T14:46:22;9.20;99.90
5743;DHT22;2896;53.500;10.020;2022-12-29T14:48:55;9.20;99.90
5743;DHT22;2896;53.500;10.020;2022-12-29T14:51:34;9.00;1.00
5743;DHT22;2896;53.500;10.020;2022-12-29T14:57:31;8.90;1.00
5743;DHT22;2896;53.500;10.020;2022-12-29T15:00:05;8.90;1.00
5743;DHT22;2896;53.500;10.020;2022-12-29T15:02:37;9.00;1.00
5743;DHT22;2896;53.500;10.020;2022-12-29T15:05:16;8.90;1.00
5743;DHT22;2896;53.500;10.020;2022-12-29T15:07:49;8.80;1.00
5743;DHT22;2896;53.500;10.020;2022-12-29T15:10:17;8.70;1.00
5743;DHT22;2896;53.500;10.020;2022-12-29T15:12:49;8.60;1.00
5743;DHT22;2896;53.500;10.020;2022-12-29T15:15:21;8.50;1.00
5743;DHT22;2896;53.500;10.020;2022-12-29T15:17:49;8.40;1.00
5743;DHT22;2896;53.500;10.020;2022-12-29T15:20:25;8.30;1.00
5743;DHT22;2896;53.500;10.020;2022-12-29T15:22:54;8.30;1.00
5743;DHT22;2896;53.500;10.020;2022-12-29T15:25:22;8.30;1.00
5743;DHT22;2896;53.500;10.020;2022-12-29T15:27:50;8.30;1.00
5743;DHT22;2896;53.500;10.020;2022-12-29T15:30:21;8.30;1.00
5743;DHT22;2896;53.500;10.020;2022-12-29T15:32:49;8.20;1.00
5743;DHT22;2896;53.500;10.020;2022-12-29T15:35:29;8.20;1.00
5743;DHT22;2896;53.500;10.020;2022-12-29T15:37:57;8.20;1.00
5743;DHT22;2896;53.500;10.020;2022-12-29T15:40:27;8.30;1.00
5743;DHT22;2896;53.500;10.020;2022-12-29T15:43:22;8.20;1.00
5743;DHT22;2896;53.500;10.020;2022-12-29T15:45:50;8.20;1.00
5743;DHT22;2896;53.500;10.020;2022-12-29T15:48:22;8.30;1.00
5743;DHT22;2896;53.500;10.020;2022-12-29T15:50:49;8.30;1.00
5743;DHT22;2896;53.500;10.020;2022-12-29T15:53:20;8.30;1.00
5743;DHT22;2896;53.500;10.020;2022-12-29T15:55:54;8.20;1.00
5743;DHT22;2896;53.500;10.020;2022-12-29T15:58:22;8.20;1.00
5743;DHT22;2896;53.500;10.020;2022-12-29T16:00:51;8.20;1.00
5743;DHT22;2896;53.500;10.020;2022-12-29T16:03:21;8.10;1.00
5743;DHT22;2896;53.500;10.020;2022-12-29T16:05:53;8.20;1.00
5743;DHT22;2896;53.500;10.020;2022-12-29T16:08:32;8.20;1.00
5743;DHT22;2896;53.500;10.020;2022-12-29T16:11:00;8.20;1.00
5743;DHT22;2896;53.500;10.020;2022-12-29T16:13:30;8.20;1.00
5743;DHT22;2896;53.500;10.020;2022-12-29T16:16:00;8.20;1.00
5743;DHT22;2896;53.500;10.020;2022-12-29T16:18:33;8.20;1.00
5743;DHT22;2896;53.500;10.020;2022-12-29T16:21:02;8.20;1.00
5743;DHT22;2896;53.500;10.020;2022-12-29T16:23:30;8.30;1.00
5743;DHT22;2896;53.500;10.020;2022-12-29T16:25:58;8.30;1.00
5743;DHT22;2896;53.500;10.020;2022-12-29T16:28:29;8.30;1.00
5743;DHT22;2896;53.500;10.020;2022-12-29T16:30:59;8.30;1.00
5743;DHT22;2896;53.500;10.020;2022-12-29T16:33:36;8.30;1.00